sensor_id;sensor_type;location;lat;lon;timestamp;P1;durP1;ratioP1;P2;durP2;ratioP2
5167;SDS011;2603;48.918;8.980;2023-05-29T00:01:34;9.27;;;5.00;;
5167;SDS011;2603;48.918;8.980;2023-05-29T00:04:04;10.33;;;4.23;;
5167;SDS011;2603;48.918;8.980;2023-05-29T00:06:30;6.43;;;3.80;;
5167;SDS011;2603;48.918;8.980;2023-05-29T00:08:57;10.60;;;4.57;;
5167;SDS011;2603;48.918;8.980;2023-05-29T00:11:23;8.40;;;4.80;;
5167;SDS011;2603;48.918;8.980;2023-05-29T00:13:50;10.80;;;5.23;;
5167;SDS011;2603;48.918;8.980;2023-05-29T00:16:17;9.90;;;4.73;;
5167;SDS011;2603;48.918;8.980;2023-05-29T00:18:44;8.40;;;4.73;;
5167;SDS011;2603;48.918;8.980;2023-05-29T00:21:12;8.43;;;4.27;;
5167;SDS011;2603;48.918;8.980;2023-05-29T00:23:39;8.93;;;4.37;;
5167;SDS011;2603;48.918;8.980;2023-05-29T00:26:06;7.27;;;4.43;;
5167;SDS011;2603;48.918;8.980;2023-05-29T00:28:33;10.83;;;5.47;;
5167;SDS011;2603;48.918;8.980;2023-05-29T00:31:01;11.47;;;5.80;;
5167;SDS011;2603;48.918;8.980;2023-05-29T00:33:28;13.93;;;5.43;;
5167;SDS011;2603;48.918;8.980;2023-05-29T00:35:54;8.20;;;5.43;;
5167;SDS011;2603;48.918;8.980;2023-05-29T00:38:22;9.97;;;4.60;;
5167;SDS011;2603;48.918;8.980;2023-05-29T00:40:49;11.33;;;6.03;;
5167;SDS011;2603;48.918;8.980;2023-05-29T00:43:16;10.33;;;5.27;;
5167;SDS011;2603;48.918;8.980;2023-05-29T00:45:42;9.73;;;4.60;;
5167;SDS011;2603;48.918;8.980;2023-05-29T00:48:09;16.60;;;5.73;;
5167;SDS011;2603;48.918;8.980;2023-05-29T00:50:36;10.33;;;4.67;;
5167;SDS011;2603;48.918;8.980;2023-05-29T00:53:03;8.47;;;4.70;;
5167;SDS011;2603;48.918;8.980;2023-05-29T00:55:33;15.93;;;4.73;;
5167;SDS011;2603;48.918;8.980;2023-05-29T00:57:59;8.57;;;4.73;;
5167;SDS011;2603;48.918;8.980;2023-05-29T01:00:26;12.73;;;5.27;;
5167;SDS011;2603;48.918;8.980;2023-05-29T01:02:53;16.27;;;5.03;;
5167;SDS011;2603;48.918;8.980;2023-05-29T01:05:21;11.90;;;5.83;;
5167;SDS011;2603;48.918;8.980;2023-05-29T01:07:48;14.07;;;4.87;;
5167;SDS011;2603;48.918;8.980;2023-05-29T01:10:15;12.10;;;5.30;;
5167;SDS011;2603;48.918;8.980;2023-05-29T01:12:47;9.90;;;4.70;;
5167;SDS011;2603;48.918;8.980;2023-05-29T01:15:19;11.70;;;4.57;;
5167;SDS011;2603;48.918;8.980;2023-05-29T01:17:59;6.97;;;4.47;;
5167;SDS011;2603;48.918;8.980;2023-05-29T01:20:35;8.73;;;4.07;;
5167;SDS011;2603;48.918;8.980;2023-05-29T01:23:07;11.93;;;4.97;;
5167;SDS011;2603;48.918;8.980;2023-05-29T01:25:48;16.93;;;5.57;;
5167;SDS011;2603;48.918;8.980;2023-05-29T01:28:22;11.60;;;5.07;;
5167;SDS011;2603;48.918;8.980;2023-05-29T01:30:52;12.60;;;5.60;;
5167;SDS011;2603;48.918;8.980;2023-05-29T01:33:20;15.07;;;5.03;;
5167;SDS011;2603;48.918;8.980;2023-05-29T01:35:49;9.00;;;5.20;;
5167;SDS011;2603;48.918;8.980;2023-05-29T01:38:16;10.00;;;4.60;;
5167;SDS011;2603;48.918;8.980;2023-05-29T01:40:43;13.17;;;5.00;;
5167;SDS011;2603;48.918;8.980;2023-05-29T01:43:10;17.87;;;5.33;;
5167;SDS011;2603;48.918;8.980;2023-05-29T01:45:38;9.90;;;4.63;;
5167;SDS011;2603;48.918;8.980;2023-05-29T01:48:05;8.00;;;4.17;;
5167;SDS011;2603;48.918;8.980;2023-05-29T01:50:33;6.60;;;4.17;;
5167;SDS011;2603;48.918;8.980;2023-05-29T01:53:00;11.70;;;5.20;;
5167;SDS011;2603;48.918;8.980;2023-05-29T01:55:27;10.37;;;5.67;;
5167;SDS011;2603;48.918;8.980;2023-05-29T01:57:54;8.30;;;4.67;;
5167;SDS011;2603;48.918;8.980;2023-05-29T02:00:21;8.03;;;4.63;;
5167;SDS011;2603;48.918;8.980;2023-05-29T02:02:50;9.30;;;4.53;;
5167;SDS011;2603;48.918;8.980;2023-05-29T02:05:17;7.57;;;4.50;;
5167;SDS011;2603;48.918;8.980;2023-05-29T02:07:43;14.73;;;4.67;;
5167;SDS011;2603;48.918;8.980;2023-05-29T02:10:11;10.37;;;5.17;;
5167;SDS011;2603;48.918;8.980;2023-05-29T02:12:38;14.43;;;5.40;;
5167;SDS011;2603;48.918;8.980;2023-05-29T02:15:05;9.37;;;5.40;;
5167;SDS011;2603;48.918;8.980;2023-05-29T02:17:32;10.67;;;5.10;;
5167;SDS011;2603;48.918;8.980;2023-05-29T02:20:01;15.03;;;5.43;;
5167;SDS011;2603;48.918;8.980;2023-05-29T02:22:28;14.47;;;5.70;;
5167;SDS011;2603;48.918;8.980;2023-05-29T02:24:54;11.10;;;5.07;;
5167;SDS011;2603;48.918;8.980;2023-05-29T02:27:22;7.67;;;4.10;;
5167;SDS011;2603;48.918;8.980;2023-05-29T02:29:48;8.50;;;4.70;;
5167;SDS011;2603;48.918;8.980;2023-05-29T02:32:15;10.93;;;5.33;;
5167;SDS011;2603;48.918;8.980;2023-05-29T02:34:42;11.70;;;4.17;;
5167;SDS011;2603;48.918;8.980;2023-05-29T02:37:11;12.70;;;5.73;;
5167;SDS011;2603;48.918;8.980;2023-05-29T02:39:37;9.63;;;4.03;;
5167;SDS011;2603;48.918;8.980;2023-05-29T02:42:05;9.27;;;5.13;;
5167;SDS011;2603;48.918;8.980;2023-05-29T02:44:32;12.73;;;4.40;;
5167;SDS011;2603;48.918;8.980;2023-05-29T02:46:58;6.37;;;4.37;;
5167;SDS011;2603;48.918;8.980;2023-05-29T02:49:25;7.43;;;4.53;;
5167;SDS011;2603;48.918;8.980;2023-05-29T02:51:51;7.90;;;4.50;;
5167;SDS011;2603;48.918;8.980;2023-05-29T02:54:22;8.63;;;4.53;;
5167;SDS011;2603;48.918;8.980;2023-05-29T02:56:49;13.07;;;4.80;;
5167;SDS011;2603;48.918;8.980;2023-05-29T02:59:16;8.90;;;4.83;;
5167;SDS011;2603;48.918;8.980;2023-05-29T03:01:42;9.93;;;5.13;;
5167;SDS011;2603;48.918;8.980;2023-05-29T03:04:10;9.07;;;3.90;;
5167;SDS011;2603;48.918;8.980;2023-05-29T03:06:37;11.03;;;4.03;;
5167;SDS011;2603;48.918;8.980;2023-05-29T03:09:05;6.93;;;3.80;;
5167;SDS011;2603;48.918;8.980;2023-05-29T03:11:34;9.87;;;4.00;;
5167;SDS011;2603;48.918;8.980;2023-05-29T03:14:01;13.93;;;4.50;;
5167;SDS011;2603;48.918;8.980;2023-05-29T03:16:27;8.03;;;4.40;;
5167;SDS011;2603;48.918;8.980;2023-05-29T03:18:55;7.00;;;4.10;;
5167;SDS011;2603;48.918;8.980;2023-05-29T03:21:22;10.33;;;5.93;;
5167;SDS011;2603;48.918;8.980;2023-05-29T03:23:49;11.23;;;5.13;;
5167;SDS011;2603;48.918;8.980;2023-05-29T03:26:16;13.70;;;4.50;;
5167;SDS011;2603;48.918;8.980;2023-05-29T03:28:45;11.03;;;4.67;;
5167;SDS011;2603;48.918;8.980;2023-05-29T03:31:11;8.73;;;4.93;;
5167;SDS011;2603;48.918;8.980;2023-05-29T03:33:38;6.40;;;4.07;;
5167;SDS011;2603;48.918;8.980;2023-05-29T03:36:13;9.83;;;5.10;;
5167;SDS011;2603;48.918;8.980;2023-05-29T03:38:42;12.50;;;4.57;;
5167;SDS011;2603;48.918;8.980;2023-05-29T03:41:09;8.10;;;4.50;;
5167;SDS011;2603;48.918;8.980;2023-05-29T03:43:37;9.33;;;4.70;;
5167;SDS011;2603;48.918;8.980;2023-05-29T03:46:05;13.43;;;4.77;;
5167;SDS011;2603;48.918;8.980;2023-05-29T03:48:34;9.87;;;4.80;;
5167;SDS011;2603;48.918;8.980;2023-05-29T03:51:01;14.87;;;4.40;;
5167;SDS011;2603;48.918;8.980;2023-05-29T03:53:33;10.77;;;4.20;;
5167;SDS011;2603;48.918;8.980;2023-05-29T03:55:59;8.23;;;4.70;;
5167;SDS011;2603;48.918;8.980;2023-05-29T03:58:26;7.37;;;4.00;;
5167;SDS011;2603;48.918;8.980;2023-05-29T04:00:53;7.07;;;4.50;;
5167;SDS011;2603;48.918;8.980;2023-05-29T04:03:21;9.37;;;4.60;;
5167;SDS011;2603;48.918;8.980;2023-05-29T04:05:48;9.23;;;4.37;;
5167;SDS011;2603;48.918;8.980;2023-05-29T04:08:15;7.83;;;4.13;;
5167;SDS011;2603;48.918;8.980;2023-05-29T04:10:41;9.40;;;4.10;;
5167;SDS011;2603;48.918;8.980;2023-05-29T04:13:08;9.43;;;4.90;;
5167;SDS011;2603;48.918;8.980;2023-05-29T04:15:37;6.93;;;4.37;;
5167;SDS011;2603;48.918;8.980;2023-05-29T04:18:04;6.37;;;4.20;;
5167;SDS011;2603;48.918;8.980;2023-05-29T04:20:33;7.57;;;4.07;;
5167;SDS011;2603;48.918;8.980;2023-05-29T04:23:00;6.70;;;4.17;;
5167;SDS011;2603;48.918;8.980;2023-05-29T04:25:27;10.40;;;5.13;;
5167;SDS011;2603;48.918;8.980;2023-05-29T04:27:54;8.80;;;4.30;;
5167;SDS011;2603;48.918;8.980;2023-05-29T04:30:21;11.17;;;4.40;;
5167;SDS011;2603;48.918;8.980;2023-05-29T04:32:48;7.93;;;4.40;;
5167;SDS011;2603;48.918;8.980;2023-05-29T04:35:15;11.67;;;4.60;;
5167;SDS011;2603;48.918;8.980;2023-05-29T04:37:52;6.47;;;4.07;;
5167;SDS011;2603;48.918;8.980;2023-05-29T04:40:19;11.60;;;5.20;;
5167;SDS011;2603;48.918;8.980;2023-05-29T04:42:46;8.20;;;4.30;;
5167;SDS011;2603;48.918;8.980;2023-05-29T04:45:14;6.60;;;3.93;;
5167;SDS011;2603;48.918;8.980;2023-05-29T04:47:41;8.23;;;3.93;;
5167;SDS011;2603;48.918;8.980;2023-05-29T04:50:10;11.23;;;3.90;;
5167;SDS011;2603;48.918;8.980;2023-05-29T04:52:41;8.80;;;3.80;;
5167;SDS011;2603;48.918;8.980;2023-05-29T04:55:11;8.40;;;3.87;;
5167;SDS011;2603;48.918;8.980;2023-05-29T04:57:38;10.07;;;3.90;;
5167;SDS011;2603;48.918;8.980;2023-05-29T05:00:08;8.10;;;4.63;;
5167;SDS011;2603;48.918;8.980;2023-05-29T05:02:39;6.67;;;3.90;;
5167;SDS011;2603;48.918;8.980;2023-05-29T05:05:07;12.30;;;4.77;;
5167;SDS011;2603;48.918;8.980;2023-05-29T05:07:34;8.70;;;4.00;;
5167;SDS011;2603;48.918;8.980;2023-05-29T05:10:01;9.00;;;4.40;;
5167;SDS011;2603;48.918;8.980;2023-05-29T05:12:29;6.87;;;3.60;;
5167;SDS011;2603;48.918;8.980;2023-05-29T05:14:56;8.17;;;4.20;;
5167;SDS011;2603;48.918;8.980;2023-05-29T05:17:23;8.03;;;4.47;;
5167;SDS011;2603;48.918;8.980;2023-05-29T05:19:50;6.10;;;4.30;;
5167;SDS011;2603;48.918;8.980;2023-05-29T05:22:17;9.97;;;4.37;;
5167;SDS011;2603;48.918;8.980;2023-05-29T05:24:44;7.20;;;4.73;;
5167;SDS011;2603;48.918;8.980;2023-05-29T05:27:11;8.10;;;4.27;;
5167;SDS011;2603;48.918;8.980;2023-05-29T05:29:39;5.80;;;4.20;;
5167;SDS011;2603;48.918;8.980;2023-05-29T05:32:06;6.30;;;4.30;;
5167;SDS011;2603;48.918;8.980;2023-05-29T05:34:33;7.20;;;3.90;;
5167;SDS011;2603;48.918;8.980;2023-05-29T05:37:00;8.93;;;4.20;;
5167;SDS011;2603;48.918;8.980;2023-05-29T05:39:28;11.87;;;5.00;;
5167;SDS011;2603;48.918;8.980;2023-05-29T05:41:55;10.17;;;4.30;;
5167;SDS011;2603;48.918;8.980;2023-05-29T05:44:40;7.10;;;3.80;;
5167;SDS011;2603;48.918;8.980;2023-05-29T05:47:11;6.70;;;3.73;;
5167;SDS011;2603;48.918;8.980;2023-05-29T05:49:37;8.40;;;3.97;;
5167;SDS011;2603;48.918;8.980;2023-05-29T05:52:04;8.40;;;4.20;;
5167;SDS011;2603;48.918;8.980;2023-05-29T05:54:31;13.13;;;5.20;;
5167;SDS011;2603;48.918;8.980;2023-05-29T05:56:59;9.67;;;4.70;;
5167;SDS011;2603;48.918;8.980;2023-05-29T05:59:26;8.43;;;4.20;;
5167;SDS011;2603;48.918;8.980;2023-05-29T06:01:54;7.33;;;4.57;;
5167;SDS011;2603;48.918;8.980;2023-05-29T06:04:22;9.63;;;3.80;;
5167;SDS011;2603;48.918;8.980;2023-05-29T06:06:49;9.60;;;3.73;;
5167;SDS011;2603;48.918;8.980;2023-05-29T06:09:15;5.23;;;3.40;;
5167;SDS011;2603;48.918;8.980;2023-05-29T06:11:43;8.40;;;3.90;;
5167;SDS011;2603;48.918;8.980;2023-05-29T06:14:10;11.07;;;4.37;;
5167;SDS011;2603;48.918;8.980;2023-05-29T06:16:37;6.00;;;3.70;;
5167;SDS011;2603;48.918;8.980;2023-05-29T06:19:05;9.93;;;4.53;;
5167;SDS011;2603;48.918;8.980;2023-05-29T06:21:42;8.93;;;4.07;;
5167;SDS011;2603;48.918;8.980;2023-05-29T06:24:09;9.70;;;4.03;;
5167;SDS011;2603;48.918;8.980;2023-05-29T06:26:36;7.40;;;3.60;;
5167;SDS011;2603;48.918;8.980;2023-05-29T06:29:05;7.97;;;4.10;;
5167;SDS011;2603;48.918;8.980;2023-05-29T06:31:33;7.83;;;4.07;;
5167;SDS011;2603;48.918;8.980;2023-05-29T06:33:59;9.20;;;4.20;;
5167;SDS011;2603;48.918;8.980;2023-05-29T06:36:28;7.93;;;4.17;;
5167;SDS011;2603;48.918;8.980;2023-05-29T06:38:54;7.30;;;4.40;;
5167;SDS011;2603;48.918;8.980;2023-05-29T06:41:21;7.43;;;4.23;;
5167;SDS011;2603;48.918;8.980;2023-05-29T06:43:48;8.40;;;3.67;;
5167;SDS011;2603;48.918;8.980;2023-05-29T06:46:16;8.40;;;4.37;;
5167;SDS011;2603;48.918;8.980;2023-05-29T06:48:43;7.50;;;4.00;;
5167;SDS011;2603;48.918;8.980;2023-05-29T06:51:10;6.60;;;3.30;;
5167;SDS011;2603;48.918;8.980;2023-05-29T06:53:48;5.37;;;3.70;;
5167;SDS011;2603;48.918;8.980;2023-05-29T06:56:16;9.80;;;3.60;;
5167;SDS011;2603;48.918;8.980;2023-05-29T06:58:43;11.13;;;3.77;;
5167;SDS011;2603;48.918;8.980;2023-05-29T07:01:13;7.73;;;3.77;;
5167;SDS011;2603;48.918;8.980;2023-05-29T07:03:51;5.70;;;3.53;;
5167;SDS011;2603;48.918;8.980;2023-05-29T07:06:18;4.60;;;2.60;;
5167;SDS011;2603;48.918;8.980;2023-05-29T07:08:44;6.17;;;3.30;;
5167;SDS011;2603;48.918;8.980;2023-05-29T07:11:12;6.17;;;3.10;;
5167;SDS011;2603;48.918;8.980;2023-05-29T07:13:39;6.90;;;3.33;;
5167;SDS011;2603;48.918;8.980;2023-05-29T07:16:06;10.87;;;4.30;;
5167;SDS011;2603;48.918;8.980;2023-05-29T07:18:34;5.67;;;3.33;;
5167;SDS011;2603;48.918;8.980;2023-05-29T07:21:02;6.50;;;3.57;;
5167;SDS011;2603;48.918;8.980;2023-05-29T07:23:29;8.73;;;3.53;;
5167;SDS011;2603;48.918;8.980;2023-05-29T07:25:57;7.30;;;3.57;;
5167;SDS011;2603;48.918;8.980;2023-05-29T07:28:28;5.73;;;3.43;;
5167;SDS011;2603;48.918;8.980;2023-05-29T07:30:55;7.50;;;3.33;;
5167;SDS011;2603;48.918;8.980;2023-05-29T07:33:22;8.40;;;3.43;;
5167;SDS011;2603;48.918;8.980;2023-05-29T07:35:53;6.87;;;3.20;;
5167;SDS011;2603;48.918;8.980;2023-05-29T07:38:20;5.30;;;3.17;;
5167;SDS011;2603;48.918;8.980;2023-05-29T07:40:47;8.53;;;3.20;;
5167;SDS011;2603;48.918;8.980;2023-05-29T07:43:45;7.40;;;3.30;;
5167;SDS011;2603;48.918;8.980;2023-05-29T07:46:17;7.00;;;3.23;;
5167;SDS011;2603;48.918;8.980;2023-05-29T07:48:44;5.70;;;3.10;;
5167;SDS011;2603;48.918;8.980;2023-05-29T07:51:12;5.53;;;2.93;;
5167;SDS011;2603;48.918;8.980;2023-05-29T07:53:43;5.03;;;3.00;;
5167;SDS011;2603;48.918;8.980;2023-05-29T07:56:10;7.17;;;3.93;;
5167;SDS011;2603;48.918;8.980;2023-05-29T07:58:38;10.40;;;3.17;;
5167;SDS011;2603;48.918;8.980;2023-05-29T08:01:07;7.43;;;3.07;;
5167;SDS011;2603;48.918;8.980;2023-05-29T08:03:35;7.40;;;2.80;;
5167;SDS011;2603;48.918;8.980;2023-05-29T08:06:26;8.87;;;3.30;;
5167;SDS011;2603;48.918;8.980;2023-05-29T08:08:53;8.43;;;3.23;;
5167;SDS011;2603;48.918;8.980;2023-05-29T08:11:21;6.43;;;3.20;;
5167;SDS011;2603;48.918;8.980;2023-05-29T08:13:48;5.37;;;3.27;;
5167;SDS011;2603;48.918;8.980;2023-05-29T08:16:17;5.63;;;3.50;;
5167;SDS011;2603;48.918;8.980;2023-05-29T08:18:43;7.70;;;3.37;;
5167;SDS011;2603;48.918;8.980;2023-05-29T08:21:10;7.37;;;3.07;;
5167;SDS011;2603;48.918;8.980;2023-05-29T08:23:37;6.67;;;3.17;;
5167;SDS011;2603;48.918;8.980;2023-05-29T08:26:04;7.43;;;3.80;;
5167;SDS011;2603;48.918;8.980;2023-05-29T08:28:31;16.53;;;3.60;;
5167;SDS011;2603;48.918;8.980;2023-05-29T08:30:58;7.67;;;3.20;;
5167;SDS011;2603;48.918;8.980;2023-05-29T08:33:26;5.60;;;3.30;;
5167;SDS011;2603;48.918;8.980;2023-05-29T08:35:53;6.50;;;3.40;;
5167;SDS011;2603;48.918;8.980;2023-05-29T08:38:19;5.73;;;3.17;;
5167;SDS011;2603;48.918;8.980;2023-05-29T08:40:47;5.50;;;3.37;;
5167;SDS011;2603;48.918;8.980;2023-05-29T08:43:15;6.50;;;3.30;;
5167;SDS011;2603;48.918;8.980;2023-05-29T08:45:43;7.33;;;3.60;;
5167;SDS011;2603;48.918;8.980;2023-05-29T08:48:10;13.10;;;3.40;;
5167;SDS011;2603;48.918;8.980;2023-05-29T08:50:43;6.17;;;3.37;;
5167;SDS011;2603;48.918;8.980;2023-05-29T08:53:10;5.07;;;2.90;;
5167;SDS011;2603;48.918;8.980;2023-05-29T08:55:37;9.13;;;3.27;;
5167;SDS011;2603;48.918;8.980;2023-05-29T08:58:04;9.40;;;3.97;;
5167;SDS011;2603;48.918;8.980;2023-05-29T09:00:30;6.83;;;2.93;;
5167;SDS011;2603;48.918;8.980;2023-05-29T09:02:57;7.20;;;3.40;;
5167;SDS011;2603;48.918;8.980;2023-05-29T09:05:24;5.63;;;3.50;;
5167;SDS011;2603;48.918;8.980;2023-05-29T09:07:53;7.50;;;3.30;;
5167;SDS011;2603;48.918;8.980;2023-05-29T09:10:20;7.03;;;3.60;;
5167;SDS011;2603;48.918;8.980;2023-05-29T09:12:47;6.10;;;3.23;;
5167;SDS011;2603;48.918;8.980;2023-05-29T09:15:19;13.33;;;4.30;;
5167;SDS011;2603;48.918;8.980;2023-05-29T09:17:49;8.53;;;3.50;;
5167;SDS011;2603;48.918;8.980;2023-05-29T09:20:17;11.13;;;3.50;;
5167;SDS011;2603;48.918;8.980;2023-05-29T09:22:46;6.27;;;3.30;;
5167;SDS011;2603;48.918;8.980;2023-05-29T09:25:20;5.60;;;3.30;;
5167;SDS011;2603;48.918;8.980;2023-05-29T09:27:50;10.63;;;4.30;;
5167;SDS011;2603;48.918;8.980;2023-05-29T09:30:30;6.80;;;3.30;;
5167;SDS011;2603;48.918;8.980;2023-05-29T09:32:58;4.40;;;2.90;;
5167;SDS011;2603;48.918;8.980;2023-05-29T09:35:25;6.43;;;4.17;;
5167;SDS011;2603;48.918;8.980;2023-05-29T09:37:53;6.57;;;3.10;;
5167;SDS011;2603;48.918;8.980;2023-05-29T09:40:21;5.80;;;3.30;;
5167;SDS011;2603;48.918;8.980;2023-05-29T09:42:47;7.20;;;3.90;;
5167;SDS011;2603;48.918;8.980;2023-05-29T09:45:16;7.43;;;4.20;;
5167;SDS011;2603;48.918;8.980;2023-05-29T09:47:44;8.03;;;3.73;;
5167;SDS011;2603;48.918;8.980;2023-05-29T09:50:17;8.07;;;3.77;;
5167;SDS011;2603;48.918;8.980;2023-05-29T09:52:45;6.10;;;2.90;;
5167;SDS011;2603;48.918;8.980;2023-05-29T09:55:14;5.90;;;3.53;;
5167;SDS011;2603;48.918;8.980;2023-05-29T09:57:43;7.70;;;3.67;;
5167;SDS011;2603;48.918;8.980;2023-05-29T10:00:11;7.27;;;3.50;;
5167;SDS011;2603;48.918;8.980;2023-05-29T10:02:39;7.27;;;2.90;;
5167;SDS011;2603;48.918;8.980;2023-05-29T10:05:07;8.43;;;4.10;;
5167;SDS011;2603;48.918;8.980;2023-05-29T10:07:35;6.03;;;3.70;;
5167;SDS011;2603;48.918;8.980;2023-05-29T10:10:02;7.77;;;2.97;;
5167;SDS011;2603;48.918;8.980;2023-05-29T10:12:32;6.40;;;3.30;;
5167;SDS011;2603;48.918;8.980;2023-05-29T10:15:03;6.93;;;3.50;;
5167;SDS011;2603;48.918;8.980;2023-05-29T10:17:33;8.10;;;3.27;;
5167;SDS011;2603;48.918;8.980;2023-05-29T10:20:01;5.23;;;2.83;;
5167;SDS011;2603;48.918;8.980;2023-05-29T10:22:29;5.20;;;3.30;;
5167;SDS011;2603;48.918;8.980;2023-05-29T10:24:57;5.40;;;3.27;;
5167;SDS011;2603;48.918;8.980;2023-05-29T10:27:24;5.50;;;2.87;;
5167;SDS011;2603;48.918;8.980;2023-05-29T10:29:53;6.43;;;2.97;;
5167;SDS011;2603;48.918;8.980;2023-05-29T10:32:27;6.73;;;2.77;;
5167;SDS011;2603;48.918;8.980;2023-05-29T10:35:00;7.63;;;3.70;;
5167;SDS011;2603;48.918;8.980;2023-05-29T10:37:33;7.50;;;3.43;;
5167;SDS011;2603;48.918;8.980;2023-05-29T10:40:04;6.00;;;3.53;;
5167;SDS011;2603;48.918;8.980;2023-05-29T10:42:43;5.60;;;3.00;;
5167;SDS011;2603;48.918;8.980;2023-05-29T10:45:12;8.53;;;3.30;;
5167;SDS011;2603;48.918;8.980;2023-05-29T10:51:07;8.57;;;3.80;;
5167;SDS011;2603;48.918;8.980;2023-05-29T10:53:35;6.73;;;3.17;;
5167;SDS011;2603;48.918;8.980;2023-05-29T10:56:07;7.30;;;3.30;;
5167;SDS011;2603;48.918;8.980;2023-05-29T10:58:36;7.83;;;3.27;;
5167;SDS011;2603;48.918;8.980;2023-05-29T11:01:04;7.60;;;3.10;;
5167;SDS011;2603;48.918;8.980;2023-05-29T11:03:31;5.40;;;2.93;;
5167;SDS011;2603;48.918;8.980;2023-05-29T11:05:58;3.73;;;2.30;;
5167;SDS011;2603;48.918;8.980;2023-05-29T11:08:32;6.07;;;3.03;;
5167;SDS011;2603;48.918;8.980;2023-05-29T11:10:59;7.10;;;3.67;;
5167;SDS011;2603;48.918;8.980;2023-05-29T11:13:27;11.10;;;3.20;;
5167;SDS011;2603;48.918;8.980;2023-05-29T11:16:08;7.30;;;3.60;;
5167;SDS011;2603;48.918;8.980;2023-05-29T11:18:40;7.50;;;2.80;;
5167;SDS011;2603;48.918;8.980;2023-05-29T11:21:13;6.53;;;2.93;;
5167;SDS011;2603;48.918;8.980;2023-05-29T11:23:49;6.57;;;3.23;;
5167;SDS011;2603;48.918;8.980;2023-05-29T11:26:17;6.33;;;3.30;;
5167;SDS011;2603;48.918;8.980;2023-05-29T11:28:44;6.40;;;2.77;;
5167;SDS011;2603;48.918;8.980;2023-05-29T11:31:12;7.23;;;3.13;;
5167;SDS011;2603;48.918;8.980;2023-05-29T11:33:40;8.17;;;2.90;;
5167;SDS011;2603;48.918;8.980;2023-05-29T11:36:08;7.77;;;3.00;;
5167;SDS011;2603;48.918;8.980;2023-05-29T11:38:36;7.10;;;2.67;;
5167;SDS011;2603;48.918;8.980;2023-05-29T11:41:02;5.20;;;2.63;;
5167;SDS011;2603;48.918;8.980;2023-05-29T11:43:29;7.70;;;2.77;;
5167;SDS011;2603;48.918;8.980;2023-05-29T11:45:56;14.00;;;3.27;;
5167;SDS011;2603;48.918;8.980;2023-05-29T11:48:24;10.97;;;2.83;;
5167;SDS011;2603;48.918;8.980;2023-05-29T11:50:50;7.50;;;3.00;;
5167;SDS011;2603;48.918;8.980;2023-05-29T11:53:18;7.07;;;2.80;;
5167;SDS011;2603;48.918;8.980;2023-05-29T11:55:45;3.87;;;2.30;;
5167;SDS011;2603;48.918;8.980;2023-05-29T11:58:11;6.90;;;2.60;;
5167;SDS011;2603;48.918;8.980;2023-05-29T12:00:38;9.63;;;2.77;;
5167;SDS011;2603;48.918;8.980;2023-05-29T12:03:05;6.83;;;2.50;;
5167;SDS011;2603;48.918;8.980;2023-05-29T12:05:44;3.77;;;2.60;;
5167;SDS011;2603;48.918;8.980;2023-05-29T12:08:11;8.93;;;3.00;;
5167;SDS011;2603;48.918;8.980;2023-05-29T12:10:40;6.20;;;2.77;;
5167;SDS011;2603;48.918;8.980;2023-05-29T12:13:12;11.73;;;2.60;;
5167;SDS011;2603;48.918;8.980;2023-05-29T12:15:40;6.47;;;2.53;;
5167;SDS011;2603;48.918;8.980;2023-05-29T12:18:06;6.83;;;2.80;;
5167;SDS011;2603;48.918;8.980;2023-05-29T12:20:35;4.03;;;2.57;;
5167;SDS011;2603;48.918;8.980;2023-05-29T12:23:02;7.93;;;2.80;;
5167;SDS011;2603;48.918;8.980;2023-05-29T12:25:28;8.53;;;3.00;;
5167;SDS011;2603;48.918;8.980;2023-05-29T12:27:56;7.60;;;3.00;;
5167;SDS011;2603;48.918;8.980;2023-05-29T12:30:23;4.77;;;2.57;;
5167;SDS011;2603;48.918;8.980;2023-05-29T12:32:50;8.70;;;2.90;;
5167;SDS011;2603;48.918;8.980;2023-05-29T12:35:19;4.67;;;2.63;;
5167;SDS011;2603;48.918;8.980;2023-05-29T12:37:47;5.73;;;2.90;;
5167;SDS011;2603;48.918;8.980;2023-05-29T12:40:15;8.93;;;3.03;;
5167;SDS011;2603;48.918;8.980;2023-05-29T12:42:43;4.67;;;2.40;;
5167;SDS011;2603;48.918;8.980;2023-05-29T12:45:10;5.37;;;2.83;;
5167;SDS011;2603;48.918;8.980;2023-05-29T12:47:37;4.50;;;2.93;;
5167;SDS011;2603;48.918;8.980;2023-05-29T12:50:14;10.23;;;3.10;;
5167;SDS011;2603;48.918;8.980;2023-05-29T12:52:45;4.57;;;2.63;;
5167;SDS011;2603;48.918;8.980;2023-05-29T12:55:13;6.87;;;2.93;;
5167;SDS011;2603;48.918;8.980;2023-05-29T12:57:40;4.90;;;2.70;;
5167;SDS011;2603;48.918;8.980;2023-05-29T13:00:10;5.33;;;2.50;;
5167;SDS011;2603;48.918;8.980;2023-05-29T13:02:38;9.53;;;2.80;;
5167;SDS011;2603;48.918;8.980;2023-05-29T13:05:05;5.20;;;3.00;;
5167;SDS011;2603;48.918;8.980;2023-05-29T13:07:32;4.63;;;2.60;;
5167;SDS011;2603;48.918;8.980;2023-05-29T13:09:59;5.60;;;2.73;;
5167;SDS011;2603;48.918;8.980;2023-05-29T13:12:28;8.47;;;2.97;;
5167;SDS011;2603;48.918;8.980;2023-05-29T13:14:54;5.87;;;2.97;;
5167;SDS011;2603;48.918;8.980;2023-05-29T13:17:22;5.13;;;2.20;;
5167;SDS011;2603;48.918;8.980;2023-05-29T13:19:48;4.90;;;2.70;;
5167;SDS011;2603;48.918;8.980;2023-05-29T13:22:15;4.03;;;2.77;;
5167;SDS011;2603;48.918;8.980;2023-05-29T13:24:42;4.37;;;2.83;;
5167;SDS011;2603;48.918;8.980;2023-05-29T13:27:09;5.10;;;3.30;;
5167;SDS011;2603;48.918;8.980;2023-05-29T13:29:40;3.30;;;2.23;;
5167;SDS011;2603;48.918;8.980;2023-05-29T13:32:07;3.60;;;2.40;;
5167;SDS011;2603;48.918;8.980;2023-05-29T13:34:33;4.87;;;2.50;;
5167;SDS011;2603;48.918;8.980;2023-05-29T13:37:00;5.47;;;1.87;;
5167;SDS011;2603;48.918;8.980;2023-05-29T13:39:27;3.00;;;2.00;;
5167;SDS011;2603;48.918;8.980;2023-05-29T13:41:55;5.30;;;2.50;;
5167;SDS011;2603;48.918;8.980;2023-05-29T13:44:21;6.10;;;2.80;;
5167;SDS011;2603;48.918;8.980;2023-05-29T13:46:49;3.50;;;2.27;;
5167;SDS011;2603;48.918;8.980;2023-05-29T13:49:16;4.70;;;2.30;;
5167;SDS011;2603;48.918;8.980;2023-05-29T13:51:43;3.90;;;2.00;;
5167;SDS011;2603;48.918;8.980;2023-05-29T13:54:12;6.03;;;2.47;;
5167;SDS011;2603;48.918;8.980;2023-05-29T13:56:39;3.87;;;2.53;;
5167;SDS011;2603;48.918;8.980;2023-05-29T13:59:05;4.37;;;2.30;;
5167;SDS011;2603;48.918;8.980;2023-05-29T14:01:32;10.13;;;2.70;;
5167;SDS011;2603;48.918;8.980;2023-05-29T14:04:01;6.43;;;3.37;;
5167;SDS011;2603;48.918;8.980;2023-05-29T14:06:27;3.93;;;2.30;;
5167;SDS011;2603;48.918;8.980;2023-05-29T14:08:54;4.27;;;2.20;;
5167;SDS011;2603;48.918;8.980;2023-05-29T14:11:21;4.53;;;2.43;;
5167;SDS011;2603;48.918;8.980;2023-05-29T14:13:48;3.30;;;1.97;;
5167;SDS011;2603;48.918;8.980;2023-05-29T14:16:15;5.83;;;2.10;;
5167;SDS011;2603;48.918;8.980;2023-05-29T14:18:41;3.93;;;2.20;;
5167;SDS011;2603;48.918;8.980;2023-05-29T14:21:09;5.47;;;2.30;;
5167;SDS011;2603;48.918;8.980;2023-05-29T14:23:37;9.43;;;2.40;;
5167;SDS011;2603;48.918;8.980;2023-05-29T14:26:04;5.47;;;2.57;;
5167;SDS011;2603;48.918;8.980;2023-05-29T14:28:31;4.87;;;2.53;;
5167;SDS011;2603;48.918;8.980;2023-05-29T14:30:58;5.37;;;2.40;;
5167;SDS011;2603;48.918;8.980;2023-05-29T14:33:24;5.63;;;2.40;;
5167;SDS011;2603;48.918;8.980;2023-05-29T14:35:51;5.03;;;2.30;;
5167;SDS011;2603;48.918;8.980;2023-05-29T14:38:19;4.77;;;1.93;;
5167;SDS011;2603;48.918;8.980;2023-05-29T14:40:45;5.10;;;2.87;;
5167;SDS011;2603;48.918;8.980;2023-05-29T14:43:12;5.63;;;2.30;;
5167;SDS011;2603;48.918;8.980;2023-05-29T14:45:39;4.33;;;2.30;;
5167;SDS011;2603;48.918;8.980;2023-05-29T14:48:05;3.40;;;2.20;;
5167;SDS011;2603;48.918;8.980;2023-05-29T14:50:32;4.17;;;2.40;;
5167;SDS011;2603;48.918;8.980;2023-05-29T14:52:59;4.37;;;2.27;;
5167;SDS011;2603;48.918;8.980;2023-05-29T14:55:27;3.63;;;2.37;;
5167;SDS011;2603;48.918;8.980;2023-05-29T14:57:53;5.00;;;2.10;;
5167;SDS011;2603;48.918;8.980;2023-05-29T15:00:20;4.10;;;2.37;;
5167;SDS011;2603;48.918;8.980;2023-05-29T15:02:46;3.33;;;2.17;;
5167;SDS011;2603;48.918;8.980;2023-05-29T15:05:13;3.13;;;2.10;;
5167;SDS011;2603;48.918;8.980;2023-05-29T15:07:40;3.33;;;2.20;;
5167;SDS011;2603;48.918;8.980;2023-05-29T15:10:07;5.40;;;1.90;;
5167;SDS011;2603;48.918;8.980;2023-05-29T15:12:36;10.73;;;2.40;;
5167;SDS011;2603;48.918;8.980;2023-05-29T15:15:03;3.30;;;1.90;;
5167;SDS011;2603;48.918;8.980;2023-05-29T15:17:30;3.67;;;2.33;;
5167;SDS011;2603;48.918;8.980;2023-05-29T15:19:57;5.20;;;2.60;;
5167;SDS011;2603;48.918;8.980;2023-05-29T15:22:25;3.40;;;2.13;;